sensor_id;sensor_type;location;lat;lon;timestamp;noise_LAeq;noise_LA_min;noise_LA_max;noise_LA01;noise_LA95
81666;Laerm;71083;51.796;10.952;2024-03-17T00:02:22;60.77;30.75;74.10;;
81666;Laerm;71083;51.796;10.952;2024-03-17T00:04:47;60.44;33.95;73.36;;
81666;Laerm;71083;51.796;10.952;2024-03-17T00:07:13;58.93;32.01;71.60;;
81666;Laerm;71083;51.796;10.952;2024-03-17T00:09:38;54.86;30.82;71.12;;
81666;Laerm;71083;51.796;10.952;2024-03-17T00:12:04;62.47;33.33;75.28;;
81666;Laerm;71083;51.796;10.952;2024-03-17T00:14:29;57.27;30.91;70.08;;
81666;Laerm;71083;51.796;10.952;2024-03-17T00:16:54;55.22;30.35;72.36;;
81666;Laerm;71083;51.796;10.952;2024-03-17T00:19:20;54.51;31.44;71.99;;
81666;Laerm;71083;51.796;10.952;2024-03-17T00:21:47;59.01;30.25;71.58;;
81666;Laerm;71083;51.796;10.952;2024-03-17T00:24:12;57.39;32.93;72.07;;
81666;Laerm;71083;51.796;10.952;2024-03-17T00:26:38;54.05;30.37;69.87;;
81666;Laerm;71083;51.796;10.952;2024-03-17T00:29:04;36.21;28.46;50.33;;
81666;Laerm;71083;51.796;10.952;2024-03-17T00:31:29;57.97;28.91;73.03;;
81666;Laerm;71083;51.796;10.952;2024-03-17T00:33:54;34.98;28.39;53.27;;
81666;Laerm;71083;51.796;10.952;2024-03-17T00:36:20;48.77;28.54;64.36;;
81666;Laerm;71083;51.796;10.952;2024-03-17T00:38:45;56.48;28.46;72.77;;
81666;Laerm;71083;51.796;10.952;2024-03-17T00:41:11;51.88;28.41;67.90;;
81666;Laerm;71083;51.796;10.952;2024-03-17T00:43:36;52.73;28.32;68.53;;
81666;Laerm;71083;51.796;10.952;2024-03-17T00:46:02;57.81;28.35;72.20;;
81666;Laerm;71083;51.796;10.952;2024-03-17T00:48:27;59.86;28.33;73.47;;
81666;Laerm;71083;51.796;10.952;2024-03-17T00:50:55;57.31;28.02;73.59;;
81666;Laerm;71083;51.796;10.952;2024-03-17T00:53:21;50.09;28.58;66.18;;
81666;Laerm;71083;51.796;10.952;2024-03-17T00:55:51;51.74;28.53;68.48;;
81666;Laerm;71083;51.796;10.952;2024-03-17T00:58:16;35.35;28.16;51.91;;
81666;Laerm;71083;51.796;10.952;2024-03-17T01:00:41;35.21;28.30;49.19;;
81666;Laerm;71083;51.796;10.952;2024-03-17T01:03:06;54.79;28.65;70.90;;
81666;Laerm;71083;51.796;10.952;2024-03-17T01:05:32;46.49;27.96;60.83;;
81666;Laerm;71083;51.796;10.952;2024-03-17T01:07:57;54.18;29.46;71.42;;
81666;Laerm;71083;51.796;10.952;2024-03-17T01:10:22;45.33;27.92;64.36;;
81666;Laerm;71083;51.796;10.952;2024-03-17T01:12:48;51.57;27.82;67.67;;
81666;Laerm;71083;51.796;10.952;2024-03-17T01:15:13;56.61;28.09;73.34;;
81666;Laerm;71083;51.796;10.952;2024-03-17T01:17:38;59.12;28.18;73.16;;
81666;Laerm;71083;51.796;10.952;2024-03-17T01:20:04;30.68;28.21;40.44;;
81666;Laerm;71083;51.796;10.952;2024-03-17T01:22:29;37.93;27.98;48.86;;
81666;Laerm;71083;51.796;10.952;2024-03-17T01:24:55;58.40;28.88;72.78;;
81666;Laerm;71083;51.796;10.952;2024-03-17T01:27:20;57.65;27.97;73.13;;
81666;Laerm;71083;51.796;10.952;2024-03-17T01:29:45;53.99;28.99;68.44;;
81666;Laerm;71083;51.796;10.952;2024-03-17T01:32:11;55.22;27.82;73.09;;
81666;Laerm;71083;51.796;10.952;2024-03-17T01:34:39;55.86;28.21;70.94;;
81666;Laerm;71083;51.796;10.952;2024-03-17T01:37:04;60.59;28.22;74.60;;
81666;Laerm;71083;51.796;10.952;2024-03-17T01:39:30;56.54;28.41;71.15;;
81666;Laerm;71083;51.796;10.952;2024-03-17T01:41:57;37.49;28.00;48.22;;
81666;Laerm;71083;51.796;10.952;2024-03-17T01:44:23;58.49;28.23;72.61;;
81666;Laerm;71083;51.796;10.952;2024-03-17T01:46:49;50.65;27.95;68.02;;
81666;Laerm;71083;51.796;10.952;2024-03-17T01:49:15;45.73;27.87;64.63;;
81666;Laerm;71083;51.796;10.952;2024-03-17T01:51:41;59.96;28.06;73.65;;
81666;Laerm;71083;51.796;10.952;2024-03-17T01:54:06;57.37;28.22;72.75;;
81666;Laerm;71083;51.796;10.952;2024-03-17T01:56:33;57.98;28.81;73.17;;
81666;Laerm;71083;51.796;10.952;2024-03-17T01:58:58;59.38;28.70;74.42;;
81666;Laerm;71083;51.796;10.952;2024-03-17T02:01:24;55.58;28.12;70.38;;
81666;Laerm;71083;51.796;10.952;2024-03-17T02:03:50;59.73;28.30;74.71;;
81666;Laerm;71083;51.796;10.952;2024-03-17T02:06:15;56.66;28.70;74.81;;
81666;Laerm;71083;51.796;10.952;2024-03-17T02:08:48;57.83;28.18;74.41;;
81666;Laerm;71083;51.796;10.952;2024-03-17T02:11:24;60.38;28.52;75.14;;
81666;Laerm;71083;51.796;10.952;2024-03-17T02:13:49;59.16;27.88;77.91;;
81666;Laerm;71083;51.796;10.952;2024-03-17T02:16:15;39.55;28.16;51.02;;
81666;Laerm;71083;51.796;10.952;2024-03-17T02:18:40;49.67;27.95;64.65;;
81666;Laerm;71083;51.796;10.952;2024-03-17T02:21:05;28.80;27.99;32.86;;
81666;Laerm;71083;51.796;10.952;2024-03-17T02:23:33;49.22;27.83;69.00;;
81666;Laerm;71083;51.796;10.952;2024-03-17T02:25:58;51.74;27.83;70.90;;
81666;Laerm;71083;51.796;10.952;2024-03-17T02:28:23;38.57;27.79;51.62;;
81666;Laerm;71083;51.796;10.952;2024-03-17T02:30:49;29.37;28.05;32.52;;
81666;Laerm;71083;51.796;10.952;2024-03-17T02:33:14;52.31;27.74;68.74;;
81666;Laerm;71083;51.796;10.952;2024-03-17T02:35:40;41.40;27.90;58.06;;
81666;Laerm;71083;51.796;10.952;2024-03-17T02:38:05;55.74;28.15;72.06;;
81666;Laerm;71083;51.796;10.952;2024-03-17T02:40:32;55.25;28.57;71.43;;
81666;Laerm;71083;51.796;10.952;2024-03-17T02:42:59;55.82;27.91;71.82;;
81666;Laerm;71083;51.796;10.952;2024-03-17T02:45:24;55.38;27.88;72.95;;
81666;Laerm;71083;51.796;10.952;2024-03-17T02:47:49;40.54;27.85;59.58;;
81666;Laerm;71083;51.796;10.952;2024-03-17T02:50:15;29.45;27.75;40.51;;
81666;Laerm;71083;51.796;10.952;2024-03-17T02:52:40;59.12;28.96;71.44;;
81666;Laerm;71083;51.796;10.952;2024-03-17T02:55:06;51.41;27.82;67.96;;
81666;Laerm;71083;51.796;10.952;2024-03-17T02:57:31;38.09;27.83;49.22;;
81666;Laerm;71083;51.796;10.952;2024-03-17T02:59:57;58.95;28.49;75.88;;
81666;Laerm;71083;51.796;10.952;2024-03-17T03:02:23;56.74;27.99;73.75;;
81666;Laerm;71083;51.796;10.952;2024-03-17T03:04:48;58.29;29.93;73.04;;
81666;Laerm;71083;51.796;10.952;2024-03-17T03:07:13;60.18;33.42;75.03;;
81666;Laerm;71083;51.796;10.952;2024-03-17T03:09:39;41.90;27.78;55.48;;
81666;Laerm;71083;51.796;10.952;2024-03-17T03:12:04;57.88;29.25;72.03;;
81666;Laerm;71083;51.796;10.952;2024-03-17T03:14:30;59.96;27.94;76.79;;
81666;Laerm;71083;51.796;10.952;2024-03-17T03:16:56;52.92;27.81;69.95;;
81666;Laerm;71083;51.796;10.952;2024-03-17T03:19:22;58.38;28.04;72.55;;
81666;Laerm;71083;51.796;10.952;2024-03-17T03:21:47;56.68;28.84;72.73;;
81666;Laerm;71083;51.796;10.952;2024-03-17T03:24:15;57.96;28.22;73.03;;
81666;Laerm;71083;51.796;10.952;2024-03-17T03:26:40;58.38;28.00;74.06;;
81666;Laerm;71083;51.796;10.952;2024-03-17T03:29:06;53.25;28.22;71.68;;
81666;Laerm;71083;51.796;10.952;2024-03-17T03:31:32;40.62;28.13;58.10;;
81666;Laerm;71083;51.796;10.952;2024-03-17T03:33:57;58.95;28.54;73.09;;
81666;Laerm;71083;51.796;10.952;2024-03-17T03:36:22;35.22;28.00;46.87;;
81666;Laerm;71083;51.796;10.952;2024-03-17T03:38:48;56.10;28.19;71.98;;
81666;Laerm;71083;51.796;10.952;2024-03-17T03:41:13;58.05;29.03;74.11;;
81666;Laerm;71083;51.796;10.952;2024-03-17T03:43:39;62.67;28.70;75.51;;
81666;Laerm;71083;51.796;10.952;2024-03-17T03:46:04;39.49;27.99;57.47;;
81666;Laerm;71083;51.796;10.952;2024-03-17T03:48:30;59.41;29.31;74.49;;
81666;Laerm;71083;51.796;10.952;2024-03-17T03:50:56;53.27;28.28;69.43;;
81666;Laerm;71083;51.796;10.952;2024-03-17T03:53:21;58.08;28.48;74.08;;
81666;Laerm;71083;51.796;10.952;2024-03-17T03:55:47;56.80;30.51;72.98;;
81666;Laerm;71083;51.796;10.952;2024-03-17T03:58:13;54.78;28.14;69.28;;
81666;Laerm;71083;51.796;10.952;2024-03-17T04:00:39;33.56;28.17;47.99;;
81666;Laerm;71083;51.796;10.952;2024-03-17T04:03:04;56.70;28.40;72.07;;
81666;Laerm;71083;51.796;10.952;2024-03-17T04:05:30;59.32;28.70;76.91;;
81666;Laerm;71083;51.796;10.952;2024-03-17T04:07:55;61.92;29.34;75.29;;
81666;Laerm;71083;51.796;10.952;2024-03-17T04:10:21;58.69;30.33;71.18;;
81666;Laerm;71083;51.796;10.952;2024-03-17T04:12:46;55.14;29.73;69.73;;
81666;Laerm;71083;51.796;10.952;2024-03-17T04:15:12;60.96;33.46;73.53;;
81666;Laerm;71083;51.796;10.952;2024-03-17T04:17:39;58.40;29.69;72.15;;
81666;Laerm;71083;51.796;10.952;2024-03-17T04:20:04;58.11;29.62;71.62;;
81666;Laerm;71083;51.796;10.952;2024-03-17T04:22:32;59.09;30.67;70.37;;
81666;Laerm;71083;51.796;10.952;2024-03-17T04:24:58;40.91;30.14;53.58;;
81666;Laerm;71083;51.796;10.952;2024-03-17T04:27:23;62.63;35.98;75.49;;
81666;Laerm;71083;51.796;10.952;2024-03-17T04:29:58;59.94;30.02;74.40;;
81666;Laerm;71083;51.796;10.952;2024-03-17T04:32:23;61.80;31.08;72.35;;
81666;Laerm;71083;51.796;10.952;2024-03-17T04:34:49;62.38;34.03;73.46;;
81666;Laerm;71083;51.796;10.952;2024-03-17T04:37:15;59.94;34.50;73.87;;
81666;Laerm;71083;51.796;10.952;2024-03-17T04:39:40;59.58;30.43;73.23;;
81666;Laerm;71083;51.796;10.952;2024-03-17T04:42:08;60.22;30.55;75.05;;
81666;Laerm;71083;51.796;10.952;2024-03-17T04:44:33;59.73;30.85;75.24;;
81666;Laerm;71083;51.796;10.952;2024-03-17T04:46:58;56.31;32.70;70.32;;
81666;Laerm;71083;51.796;10.952;2024-03-17T04:49:23;62.65;30.85;73.23;;
81666;Laerm;71083;51.796;10.952;2024-03-17T04:51:49;61.09;31.30;75.29;;
81666;Laerm;71083;51.796;10.952;2024-03-17T04:54:14;58.32;32.50;71.27;;
81666;Laerm;71083;51.796;10.952;2024-03-17T04:56:40;58.96;30.29;71.19;;
81666;Laerm;71083;51.796;10.952;2024-03-17T04:59:05;57.53;30.46;72.26;;
81666;Laerm;71083;51.796;10.952;2024-03-17T05:01:30;52.93;29.77;67.88;;
81666;Laerm;71083;51.796;10.952;2024-03-17T05:04:01;56.57;29.30;71.28;;
81666;Laerm;71083;51.796;10.952;2024-03-17T05:06:28;54.55;30.06;72.06;;
81666;Laerm;71083;51.796;10.952;2024-03-17T05:08:53;56.78;29.20;71.78;;
81666;Laerm;71083;51.796;10.952;2024-03-17T05:11:18;60.39;30.05;72.73;;
81666;Laerm;71083;51.796;10.952;2024-03-17T05:13:44;54.41;29.37;70.75;;
81666;Laerm;71083;51.796;10.952;2024-03-17T05:16:10;58.99;30.17;75.72;;
81666;Laerm;71083;51.796;10.952;2024-03-17T05:18:35;47.84;29.54;68.43;;
81666;Laerm;71083;51.796;10.952;2024-03-17T05:21:04;60.73;31.58;73.70;;
81666;Laerm;71083;51.796;10.952;2024-03-17T05:23:30;53.91;30.34;71.30;;
81666;Laerm;71083;51.796;10.952;2024-03-17T05:25:56;58.72;31.73;70.88;;
81666;Laerm;71083;51.796;10.952;2024-03-17T05:28:23;63.76;34.12;75.22;;
81666;Laerm;71083;51.796;10.952;2024-03-17T05:30:48;51.80;31.76;71.92;;
81666;Laerm;71083;51.796;10.952;2024-03-17T05:33:15;60.06;31.09;73.39;;
81666;Laerm;71083;51.796;10.952;2024-03-17T05:35:47;59.39;34.09;72.93;;
81666;Laerm;71083;51.796;10.952;2024-03-17T05:38:13;59.14;32.53;74.63;;
81666;Laerm;71083;51.796;10.952;2024-03-17T05:40:38;55.60;31.40;69.21;;
81666;Laerm;71083;51.796;10.952;2024-03-17T05:43:06;58.47;30.80;73.57;;
81666;Laerm;71083;51.796;10.952;2024-03-17T05:45:32;57.20;30.54;72.11;;
81666;Laerm;71083;51.796;10.952;2024-03-17T05:47:57;36.32;29.87;54.37;;
81666;Laerm;71083;51.796;10.952;2024-03-17T05:50:23;61.68;30.14;75.44;;
81666;Laerm;71083;51.796;10.952;2024-03-17T05:52:48;56.22;30.47;71.30;;
81666;Laerm;71083;51.796;10.952;2024-03-17T05:55:13;60.53;29.71;73.45;;
81666;Laerm;71083;51.796;10.952;2024-03-17T05:57:39;60.49;32.39;71.81;;
81666;Laerm;71083;51.796;10.952;2024-03-17T06:00:04;57.34;32.26;73.35;;
81666;Laerm;71083;51.796;10.952;2024-03-17T06:02:30;55.72;30.96;73.91;;
81666;Laerm;71083;51.796;10.952;2024-03-17T06:04:55;56.85;29.51;71.79;;
81666;Laerm;71083;51.796;10.952;2024-03-17T06:07:20;59.32;29.95;75.16;;
81666;Laerm;71083;51.796;10.952;2024-03-17T06:09:46;61.21;32.26;74.52;;
81666;Laerm;71083;51.796;10.952;2024-03-17T06:12:12;59.53;32.03;72.97;;
81666;Laerm;71083;51.796;10.952;2024-03-17T06:14:37;54.09;30.50;71.16;;
81666;Laerm;71083;51.796;10.952;2024-03-17T06:17:03;53.52;29.51;70.88;;
81666;Laerm;71083;51.796;10.952;2024-03-17T06:19:30;52.47;30.94;69.10;;
81666;Laerm;71083;51.796;10.952;2024-03-17T06:21:55;56.68;32.86;74.70;;
81666;Laerm;71083;51.796;10.952;2024-03-17T06:24:21;55.56;31.71;72.24;;
81666;Laerm;71083;51.796;10.952;2024-03-17T06:26:46;60.43;30.76;75.99;;
81666;Laerm;71083;51.796;10.952;2024-03-17T06:29:13;47.22;29.80;60.39;;
81666;Laerm;71083;51.796;10.952;2024-03-17T06:31:40;57.87;30.53;73.18;;
81666;Laerm;71083;51.796;10.952;2024-03-17T06:34:05;57.96;31.88;71.40;;
81666;Laerm;71083;51.796;10.952;2024-03-17T06:36:30;60.25;33.97;72.71;;
81666;Laerm;71083;51.796;10.952;2024-03-17T06:38:56;57.87;32.78;70.06;;
81666;Laerm;71083;51.796;10.952;2024-03-17T06:41:21;60.18;31.74;74.75;;
81666;Laerm;71083;51.796;10.952;2024-03-17T06:43:46;58.31;31.12;72.12;;
81666;Laerm;71083;51.796;10.952;2024-03-17T06:46:12;62.58;32.62;73.71;;
81666;Laerm;71083;51.796;10.952;2024-03-17T06:48:37;58.08;31.80;70.36;;
81666;Laerm;71083;51.796;10.952;2024-03-17T06:51:02;62.46;34.33;75.45;;
81666;Laerm;71083;51.796;10.952;2024-03-17T06:53:28;61.74;38.63;75.84;;
81666;Laerm;71083;51.796;10.952;2024-03-17T06:55:57;56.48;31.62;71.46;;
81666;Laerm;71083;51.796;10.952;2024-03-17T06:58:23;61.74;34.54;71.71;;
81666;Laerm;71083;51.796;10.952;2024-03-17T07:00:58;58.97;32.54;71.70;;
81666;Laerm;71083;51.796;10.952;2024-03-17T07:03:27;57.41;30.52;75.02;;
81666;Laerm;71083;51.796;10.952;2024-03-17T07:05:56;59.80;34.47;74.30;;
81666;Laerm;71083;51.796;10.952;2024-03-17T07:08:22;60.23;31.60;72.40;;
81666;Laerm;71083;51.796;10.952;2024-03-17T07:11:01;60.80;38.37;72.87;;
81666;Laerm;71083;51.796;10.952;2024-03-17T07:13:28;60.70;35.73;73.92;;
81666;Laerm;71083;51.796;10.952;2024-03-17T07:15:53;61.75;32.54;72.59;;
81666;Laerm;71083;51.796;10.952;2024-03-17T07:18:19;60.59;34.41;72.48;;
81666;Laerm;71083;51.796;10.952;2024-03-17T07:20:44;59.44;32.58;71.65;;
81666;Laerm;71083;51.796;10.952;2024-03-17T07:23:12;63.27;33.09;73.61;;
81666;Laerm;71083;51.796;10.952;2024-03-17T07:25:38;62.01;32.08;73.60;;
81666;Laerm;71083;51.796;10.952;2024-03-17T07:28:03;62.58;34.56;76.66;;
81666;Laerm;71083;51.796;10.952;2024-03-17T07:30:29;59.36;34.73;73.38;;
81666;Laerm;71083;51.796;10.952;2024-03-17T07:32:54;62.87;36.94;75.46;;
81666;Laerm;71083;51.796;10.952;2024-03-17T07:35:19;62.18;34.26;72.86;;
81666;Laerm;71083;51.796;10.952;2024-03-17T07:37:46;62.38;35.58;74.12;;
81666;Laerm;71083;51.796;10.952;2024-03-17T07:40:11;62.46;37.05;72.32;;
81666;Laerm;71083;51.796;10.952;2024-03-17T07:42:36;55.45;32.18;69.15;;
81666;Laerm;71083;51.796;10.952;2024-03-17T07:45:02;63.47;38.59;76.91;;
81666;Laerm;71083;51.796;10.952;2024-03-17T07:47:27;64.15;40.31;74.26;;
81666;Laerm;71083;51.796;10.952;2024-03-17T07:50:01;61.51;35.86;71.84;;
81666;Laerm;71083;51.796;10.952;2024-03-17T07:52:29;65.77;42.88;84.31;;
81666;Laerm;71083;51.796;10.952;2024-03-17T07:54:54;63.64;40.02;74.39;;
81666;Laerm;71083;51.796;10.952;2024-03-17T07:57:19;63.98;41.21;72.12;;
81666;Laerm;71083;51.796;10.952;2024-03-17T07:59:45;60.45;40.92;72.30;;
81666;Laerm;71083;51.796;10.952;2024-03-17T08:02:11;65.35;44.08;74.34;;
81666;Laerm;71083;51.796;10.952;2024-03-17T08:04:37;64.21;40.88;75.70;;
81666;Laerm;71083;51.796;10.952;2024-03-17T08:07:04;60.92;38.67;73.64;;
81666;Laerm;71083;51.796;10.952;2024-03-17T08:09:29;63.25;34.51;73.20;;
81666;Laerm;71083;51.796;10.952;2024-03-17T08:11:55;63.59;40.30;76.02;;
81666;Laerm;71083;51.796;10.952;2024-03-17T08:14:20;65.12;35.42;73.78;;
81666;Laerm;71083;51.796;10.952;2024-03-17T08:16:45;65.49;42.28;75.14;;
81666;Laerm;71083;51.796;10.952;2024-03-17T08:19:10;63.82;43.05;73.92;;
81666;Laerm;71083;51.796;10.952;2024-03-17T08:21:36;66.53;40.56;76.03;;
81666;Laerm;71083;51.796;10.952;2024-03-17T08:24:01;66.52;39.94;75.03;;
81666;Laerm;71083;51.796;10.952;2024-03-17T08:26:26;64.06;37.93;73.39;;
81666;Laerm;71083;51.796;10.952;2024-03-17T08:28:52;64.30;42.10;76.14;;
81666;Laerm;71083;51.796;10.952;2024-03-17T08:31:17;66.19;39.33;75.28;;
81666;Laerm;71083;51.796;10.952;2024-03-17T08:33:42;65.02;42.48;74.37;;
81666;Laerm;71083;51.796;10.952;2024-03-17T08:36:08;65.16;44.53;75.34;;
81666;Laerm;71083;51.796;10.952;2024-03-17T08:38:34;65.99;40.56;74.16;;
81666;Laerm;71083;51.796;10.952;2024-03-17T08:41:04;65.37;42.75;72.81;;
81666;Laerm;71083;51.796;10.952;2024-03-17T08:43:31;66.98;42.72;75.80;;
81666;Laerm;71083;51.796;10.952;2024-03-17T08:45:57;63.87;42.23;71.15;;
81666;Laerm;71083;51.796;10.952;2024-03-17T08:48:26;67.86;40.35;76.66;;
81666;Laerm;71083;51.796;10.952;2024-03-17T08:50:52;64.31;40.15;74.01;;
81666;Laerm;71083;51.796;10.952;2024-03-17T08:53:18;65.49;41.89;74.22;;
81666;Laerm;71083;51.796;10.952;2024-03-17T08:55:43;63.31;39.41;74.27;;
81666;Laerm;71083;51.796;10.952;2024-03-17T08:58:09;65.06;39.59;73.07;;
81666;Laerm;71083;51.796;10.952;2024-03-17T09:00:35;65.73;48.86;72.75;;
81666;Laerm;71083;51.796;10.952;2024-03-17T09:03:02;64.36;36.37;76.75;;
81666;Laerm;71083;51.796;10.952;2024-03-17T09:05:27;64.21;40.36;73.72;;
81666;Laerm;71083;51.796;10.952;2024-03-17T09:07:52;66.08;44.08;75.34;;
81666;Laerm;71083;51.796;10.952;2024-03-17T09:10:18;64.74;44.76;74.48;;
81666;Laerm;71083;51.796;10.952;2024-03-17T09:12:43;65.50;43.48;73.49;;
81666;Laerm;71083;51.796;10.952;2024-03-17T09:15:09;66.40;45.75;76.89;;
81666;Laerm;71083;51.796;10.952;2024-03-17T09:17:36;66.82;51.03;74.27;;
81666;Laerm;71083;51.796;10.952;2024-03-17T09:20:02;67.41;44.02;74.88;;
81666;Laerm;71083;51.796;10.952;2024-03-17T09:22:27;65.94;43.63;75.72;;
81666;Laerm;71083;51.796;10.952;2024-03-17T09:24:53;65.68;40.33;74.33;;
81666;Laerm;71083;51.796;10.952;2024-03-17T09:27:18;66.25;43.00;74.49;;
81666;Laerm;71083;51.796;10.952;2024-03-17T09:29:46;65.94;43.73;73.97;;
81666;Laerm;71083;51.796;10.952;2024-03-17T09:32:12;66.58;46.30;74.40;;
81666;Laerm;71083;51.796;10.952;2024-03-17T09:34:42;66.39;48.44;75.88;;
81666;Laerm;71083;51.796;10.952;2024-03-17T09:37:08;66.05;46.14;72.88;;
81666;Laerm;71083;51.796;10.952;2024-03-17T09:39:33;66.58;46.25;79.36;;
81666;Laerm;71083;51.796;10.952;2024-03-17T09:41:59;66.15;45.49;73.62;;
81666;Laerm;71083;51.796;10.952;2024-03-17T09:44:25;63.64;37.75;72.84;;
81666;Laerm;71083;51.796;10.952;2024-03-17T09:46:51;66.96;50.50;74.88;;
81666;Laerm;71083;51.796;10.952;2024-03-17T09:49:17;64.40;40.36;73.10;;
81666;Laerm;71083;51.796;10.952;2024-03-17T09:51:42;67.65;41.87;76.58;;
81666;Laerm;71083;51.796;10.952;2024-03-17T09:54:18;66.46;41.91;75.17;;
81666;Laerm;71083;51.796;10.952;2024-03-17T09:56:44;64.68;44.11;74.12;;
81666;Laerm;71083;51.796;10.952;2024-03-17T09:59:09;66.67;38.92;73.72;;
81666;Laerm;71083;51.796;10.952;2024-03-17T10:01:35;66.62;37.45;74.59;;
81666;Laerm;71083;51.796;10.952;2024-03-17T10:04:00;63.87;35.28;72.47;;
81666;Laerm;71083;51.796;10.952;2024-03-17T10:06:29;66.19;50.03;75.10;;
81666;Laerm;71083;51.796;10.952;2024-03-17T10:08:55;65.37;38.81;72.60;;
81666;Laerm;71083;51.796;10.952;2024-03-17T10:11:21;64.14;43.98;74.69;;
81666;Laerm;71083;51.796;10.952;2024-03-17T10:13:58;68.23;50.23;75.99;;
81666;Laerm;71083;51.796;10.952;2024-03-17T10:16:24;66.08;42.55;74.95;;
81666;Laerm;71083;51.796;10.952;2024-03-17T10:18:51;65.97;42.20;75.32;;
81666;Laerm;71083;51.796;10.952;2024-03-17T10:21:24;66.42;41.49;75.50;;
81666;Laerm;71083;51.796;10.952;2024-03-17T10:23:54;65.08;39.43;73.99;;
81666;Laerm;71083;51.796;10.952;2024-03-17T10:26:29;66.98;47.13;75.93;;
81666;Laerm;71083;51.796;10.952;2024-03-17T10:28:54;67.85;53.13;75.61;;
81666;Laerm;71083;51.796;10.952;2024-03-17T10:31:20;65.42;44.14;73.55;;
81666;Laerm;71083;51.796;10.952;2024-03-17T10:33:46;67.54;40.02;81.04;;
81666;Laerm;71083;51.796;10.952;2024-03-17T10:36:25;67.06;53.40;75.40;;
81666;Laerm;71083;51.796;10.952;2024-03-17T10:38:51;65.41;42.73;73.94;;
81666;Laerm;71083;51.796;10.952;2024-03-17T10:41:17;67.67;46.65;74.48;;
81666;Laerm;71083;51.796;10.952;2024-03-17T10:43:44;67.30;43.73;75.31;;
81666;Laerm;71083;51.796;10.952;2024-03-17T10:46:10;66.11;45.89;72.24;;
81666;Laerm;71083;51.796;10.952;2024-03-17T10:48:37;67.60;43.61;73.76;;
81666;Laerm;71083;51.796;10.952;2024-03-17T10:51:02;66.89;41.96;76.28;;
81666;Laerm;71083;51.796;10.952;2024-03-17T10:53:28;65.03;44.18;74.08;;
81666;Laerm;71083;51.796;10.952;2024-03-17T10:56:04;67.53;43.23;75.48;;
81666;Laerm;71083;51.796;10.952;2024-03-17T10:58:34;67.06;41.37;75.12;;
81666;Laerm;71083;51.796;10.952;2024-03-17T11:01:01;64.21;41.03;73.55;;
81666;Laerm;71083;51.796;10.952;2024-03-17T11:03:28;71.39;48.01;86.04;;
81666;Laerm;71083;51.796;10.952;2024-03-17T11:05:54;66.42;34.52;75.47;;
81666;Laerm;71083;51.796;10.952;2024-03-17T11:08:19;65.71;39.29;75.85;;
81666;Laerm;71083;51.796;10.952;2024-03-17T11:10:51;66.59;48.80;73.95;;
81666;Laerm;71083;51.796;10.952;2024-03-17T11:13:27;63.71;40.31;72.55;;
81666;Laerm;71083;51.796;10.952;2024-03-17T11:15:53;67.25;44.74;75.21;;
81666;Laerm;71083;51.796;10.952;2024-03-17T11:20:55;65.76;46.62;73.93;;
81666;Laerm;71083;51.796;10.952;2024-03-17T11:23:28;67.08;44.46;75.44;;
81666;Laerm;71083;51.796;10.952;2024-03-17T11:25:54;64.94;42.52;73.13;;
81666;Laerm;71083;51.796;10.952;2024-03-17T11:31:03;67.07;46.88;78.58;;
81666;Laerm;71083;51.796;10.952;2024-03-17T11:43:46;67.61;46.28;75.54;;
81666;Laerm;71083;51.796;10.952;2024-03-17T11:46:15;65.33;40.55;76.82;;
81666;Laerm;71083;51.796;10.952;2024-03-17T11:48:40;65.15;40.99;71.93;;
81666;Laerm;71083;51.796;10.952;2024-03-17T11:51:06;65.91;48.06;75.19;;
81666;Laerm;71083;51.796;10.952;2024-03-17T11:53:31;66.20;45.32;73.33;;
81666;Laerm;71083;51.796;10.952;2024-03-17T11:55:58;67.11;48.38;74.19;;
81666;Laerm;71083;51.796;10.952;2024-03-17T11:58:23;66.21;45.38;81.06;;
81666;Laerm;71083;51.796;10.952;2024-03-17T12:00:51;67.02;43.80;78.34;;
81666;Laerm;71083;51.796;10.952;2024-03-17T12:03:17;65.81;44.19;75.21;;
81666;Laerm;71083;51.796;10.952;2024-03-17T12:05:42;65.19;41.72;72.50;;
81666;Laerm;71083;51.796;10.952;2024-03-17T12:08:28;65.68;39.21;73.95;;
81666;Laerm;71083;51.796;10.952;2024-03-17T12:10:53;66.15;47.01;74.09;;
81666;Laerm;71083;51.796;10.952;2024-03-17T12:13:19;67.40;49.18;77.55;;
81666;Laerm;71083;51.796;10.952;2024-03-17T12:15:44;66.47;48.64;73.80;;
81666;Laerm;71083;51.796;10.952;2024-03-17T12:18:21;68.38;49.24;74.79;;
81666;Laerm;71083;51.796;10.952;2024-03-17T12:20:49;67.53;46.63;76.26;;
81666;Laerm;71083;51.796;10.952;2024-03-17T12:23:14;68.28;46.81;78.73;;
81666;Laerm;71083;51.796;10.952;2024-03-17T12:25:48;67.59;43.85;75.92;;
81666;Laerm;71083;51.796;10.952;2024-03-17T12:28:17;65.94;49.09;76.15;;
81666;Laerm;71083;51.796;10.952;2024-03-17T12:30:42;67.59;42.15;77.32;;
81666;Laerm;71083;51.796;10.952;2024-03-17T12:33:09;67.29;47.72;75.79;;
81666;Laerm;71083;51.796;10.952;2024-03-17T12:35:36;64.48;39.92;73.59;;
81666;Laerm;71083;51.796;10.952;2024-03-17T12:38:18;66.48;44.41;73.53;;
81666;Laerm;71083;51.796;10.952;2024-03-17T12:40:44;66.96;47.86;75.79;;
81666;Laerm;71083;51.796;10.952;2024-03-17T12:43:11;65.91;52.58;72.55;;
81666;Laerm;71083;51.796;10.952;2024-03-17T12:45:37;66.92;49.67;76.23;;
81666;Laerm;71083;51.796;10.952;2024-03-17T12:48:03;66.98;51.11;74.68;;
81666;Laerm;71083;51.796;10.952;2024-03-17T12:50:28;68.95;39.24;86.69;;
81666;Laerm;71083;51.796;10.952;2024-03-17T12:52:54;67.85;45.65;75.14;;
81666;Laerm;71083;51.796;10.952;2024-03-17T13:16:03;65.13;37.32;72.67;;
81666;Laerm;71083;51.796;10.952;2024-03-17T13:18:29;66.95;42.55;74.31;;
81666;Laerm;71083;51.796;10.952;2024-03-17T13:20:54;67.24;44.93;75.94;;
81666;Laerm;71083;51.796;10.952;2024-03-17T13:23:22;66.76;39.23;74.81;;
81666;Laerm;71083;51.796;10.952;2024-03-17T13:25:49;69.20;47.69;79.07;;
81666;Laerm;71083;51.796;10.952;2024-03-17T13:28:14;67.05;45.36;76.64;;
81666;Laerm;71083;51.796;10.952;2024-03-17T13:30:40;68.26;54.60;75.61;;
81666;Laerm;71083;51.796;10.952;2024-03-17T13:33:06;68.38;50.66;75.66;;
81666;Laerm;71083;51.796;10.952;2024-03-17T13:35:35;67.93;51.25;78.89;;
81666;Laerm;71083;51.796;10.952;2024-03-17T13:38:04;67.77;46.79;74.43;;
81666;Laerm;71083;51.796;10.952;2024-03-17T13:40:32;66.78;47.19;74.10;;
81666;Laerm;71083;51.796;10.952;2024-03-17T13:42:57;68.02;46.28;76.92;;
81666;Laerm;71083;51.796;10.952;2024-03-17T13:45:24;67.96;44.43;74.18;;
81666;Laerm;71083;51.796;10.952;2024-03-17T13:47:56;67.75;45.19;81.16;;
81666;Laerm;71083;51.796;10.952;2024-03-17T13:50:22;66.27;47.40;78.03;;
81666;Laerm;71083;51.796;10.952;2024-03-17T13:52:48;66.97;41.68;74.12;;
81666;Laerm;71083;51.796;10.952;2024-03-17T13:55:19;66.39;43.63;75.85;;
81666;Laerm;71083;51.796;10.952;2024-03-17T13:57:54;65.47;41.46;73.82;;
81666;Laerm;71083;51.796;10.952;2024-03-17T14:00:20;68.41;57.59;76.83;;
81666;Laerm;71083;51.796;10.952;2024-03-17T14:21:26;67.45;37.84;76.80;;
81666;Laerm;71083;51.796;10.952;2024-03-17T14:23:52;65.86;40.90;75.46;;